Time;durP1;ratioP1;P1;durP2;ratioP2;P2;SDS_P1;SDS_P2;PMS_P1;PMS_P2;Temp;Humidity;BMP_temperature;BMP_pressure;BME280_temperature;BME280_humidity;BME280_pressure;Samples;Min_cycle;Max_cycle;Signal;HPM_P1;HPM_P2
2024/03/02 00:00:15;;;;;;;37.03;16.92;;;;;;;8.37;77.80;93320.50;5004600;28;20034;-74
2024/03/02 00:02:45;;;;;;;32.53;16.63;;;;;;;8.36;77.79;93329.53;5004603;28;20034;-74
2024/03/02 00:05:21;;;;;;;30.85;16.00;;;;;;;8.30;78.15;93336.09;5004015;28;20034;-74
2024/03/02 00:07:52;;;;;;;35.92;16.58;;;;;;;8.31;78.29;93332.38;5003556;28;20025;-74
2024/03/02 00:10:24;;;;;;;33.05;16.77;;;;;;;8.32;78.37;93331.25;5002184;28;20015;-75
2024/03/02 00:12:50;;;;;;;35.60;16.23;;;;;;;8.32;78.67;93339.22;5004328;28;20227;-74
2024/03/02 00:15:30;;;;;;;34.05;15.75;;;;;;;8.33;78.43;93325.66;5004188;28;20089;-74
2024/03/02 00:17:56;;;;;;;29.17;16.60;;;;;;;8.29;78.33;93326.59;5004384;28;20044;-74
2024/03/02 00:20:23;;;;;;;33.78;16.23;;;;;;;8.19;78.68;93328.44;5004183;28;20033;-74
2024/03/02 00:22:49;;;;;;;37.47;17.35;;;;;;;8.18;78.83;93324.22;5004316;28;20228;-74
2024/03/02 00:25:15;;;;;;;35.83;16.80;;;;;;;8.17;79.10;93327.97;5004107;28;20304;-74
2024/03/02 00:27:40;;;;;;;35.63;18.83;;;;;;;8.11;79.53;93325.78;5004109;28;20022;-74
2024/03/02 00:30:35;;;;;;;37.47;18.15;;;;;;;8.14;79.62;93333.09;5003968;28;20014;-74
2024/03/02 00:33:01;;;;;;;35.25;18.20;;;;;;;8.15;79.58;93332.81;5018718;28;20056;-74
2024/03/02 00:35:26;;;;;;;40.15;18.20;;;;;;;8.15;79.38;93332.81;5004289;28;20320;-74
2024/03/02 00:37:51;;;;;;;34.78;18.05;;;;;;;8.16;79.60;93328.25;5004040;28;20029;-74
2024/03/02 00:40:17;;;;;;;34.28;16.70;;;;;;;8.21;79.66;93336.09;5003828;28;20030;-73
2024/03/02 00:42:42;;;;;;;34.95;16.15;;;;;;;8.23;79.32;93329.38;5003926;28;20026;-73
2024/03/02 00:45:08;;;;;;;35.67;17.70;;;;;;;8.29;79.44;93324.69;5002356;28;20339;-73
2024/03/02 00:47:38;;;;;;;35.67;17.67;;;;;;;8.32;79.27;93324.06;5003210;28;20026;-73
2024/03/02 00:50:05;;;;;;;35.63;17.23;;;;;;;8.43;78.85;93324.59;5002422;28;20215;-73
2024/03/02 00:52:32;;;;;;;35.22;17.38;;;;;;;8.44;78.80;93326.13;5003856;28;20026;-74
2024/03/02 00:54:58;;;;;;;36.33;17.13;;;;;;;8.51;78.62;93323.81;5003835;28;20045;-74
2024/03/02 00:57:25;;;;;;;33.60;17.33;;;;;;;8.53;78.14;93326.94;5003702;28;20198;-74
2024/03/02 00:59:51;;;;;;;36.03;18.27;;;;;;;8.59;78.24;93338.97;5003494;28;20029;-74
2024/03/02 01:02:16;;;;;;;33.05;16.80;;;;;;;8.61;77.91;93326.16;5003641;28;20313;-74
2024/03/02 01:04:42;;;;;;;36.03;17.30;;;;;;;8.60;78.09;93326.47;5003596;28;20193;-74
2024/03/02 01:07:07;;;;;;;34.53;17.35;;;;;;;8.57;78.28;93322.56;5002904;28;20019;-74
2024/03/02 01:09:33;;;;;;;41.28;18.05;;;;;;;8.63;78.07;93323.97;5003528;28;20019;-74
2024/03/02 01:11:58;;;;;;;35.35;18.23;;;;;;;8.67;77.83;93323.31;5003574;28;20101;-74
2024/03/02 01:14:23;;;;;;;31.38;16.85;;;;;;;8.56;77.60;93315.66;5003255;28;20022;-75
2024/03/02 01:16:49;;;;;;;29.67;16.23;;;;;;;8.43;78.29;93316.63;5003480;28;20042;-74
2024/03/02 01:19:15;;;;;;;30.25;16.05;;;;;;;8.33;79.13;93316.91;5003518;28;20049;-73
2024/03/02 01:21:40;;;;;;;32.97;16.08;;;;;;;8.17;79.10;93306.72;5003172;28;20023;-74
2024/03/02 01:24:06;;;;;;;35.00;16.52;;;;;;;8.11;79.65;93305.31;5003456;28;20141;-75
2024/03/02 01:26:31;;;;;;;36.00;18.27;;;;;;;8.10;80.00;93309.06;5003209;28;20072;-74
2024/03/02 01:28:56;;;;;;;34.90;17.70;;;;;;;8.19;79.99;93303.75;5003511;28;20030;-75
2024/03/02 01:31:22;;;;;;;33.58;16.42;;;;;;;8.23;79.66;93305.47;5003344;28;20031;-75
2024/03/02 01:33:47;;;;;;;34.75;16.50;;;;;;;8.19;79.52;93304.53;5003285;28;20030;-74
2024/03/02 01:36:13;;;;;;;35.80;16.27;;;;;;;8.18;79.27;93305.66;5003244;28;20101;-74
2024/03/02 01:38:38;;;;;;;33.72;15.10;;;;;;;8.17;79.39;93300.63;5003371;28;20312;-74
2024/03/02 01:41:04;;;;;;;28.88;15.07;;;;;;;8.15;78.93;93300.16;5003190;28;20325;-74
2024/03/02 01:43:29;;;;;;;28.98;14.25;;;;;;;8.03;79.14;93303.44;5003203;28;20061;-74
2024/03/02 01:45:56;;;;;;;30.98;14.95;;;;;;;8.04;79.81;93302.34;5003255;28;20045;-74
2024/03/02 01:48:21;;;;;;;26.70;14.68;;;;;;;8.10;79.48;93295.81;5003228;28;20291;-74
2024/03/02 01:50:47;;;;;;;32.28;13.95;;;;;;;8.16;79.09;93299.06;5003235;28;20038;-74
2024/03/02 01:53:13;;;;;;;34.20;16.05;;;;;;;8.22;79.55;93292.50;5003101;28;20022;-74
2024/03/02 01:55:38;;;;;;;34.30;14.75;;;;;;;8.26;79.95;93290.78;5003075;28;20097;-74
2024/03/02 01:58:04;;;;;;;27.13;14.25;;;;;;;8.32;79.98;93291.44;5003002;28;20029;-74
2024/03/02 02:00:30;;;;;;;29.35;13.95;;;;;;;8.43;80.07;93287.41;5003183;28;20283;-74
2024/03/02 02:02:55;;;;;;;27.30;14.25;;;;;;;8.51;79.05;93291.94;5003391;28;20371;-73
2024/03/02 02:05:21;;;;;;;31.67;14.05;;;;;;;8.52;78.74;93292.72;5003131;28;20037;-73
2024/03/02 02:07:47;;;;;;;27.40;14.55;;;;;;;8.53;79.13;93303.03;5003010;28;20041;-73
2024/03/02 02:10:12;;;;;;;30.13;14.27;;;;;;;8.55;79.16;93294.75;5002967;28;20030;-73
2024/03/02 02:12:38;;;;;;;27.90;13.82;;;;;;;8.62;79.25;93295.06;5001935;28;20058;-72
2024/03/02 02:15:21;;;;;;;29.63;13.77;;;;;;;8.68;78.95;93293.78;5002929;28;20264;-73
2024/03/02 02:17:46;;;;;;;27.05;13.38;;;;;;;8.76;78.69;93300.19;5003892;28;20275;-73
2024/03/02 02:20:12;;;;;;;29.60;13.45;;;;;;;8.80;78.42;93290.50;5006535;28;20026;-73
2024/03/02 02:22:37;;;;;;;26.60;13.73;;;;;;;8.82;78.41;93290.97;5006514;28;20042;-73
2024/03/02 02:25:03;;;;;;;24.35;12.93;;;;;;;8.88;78.09;93292.34;5006544;28;20026;-73
2024/03/02 02:27:28;;;;;;;28.17;14.00;;;;;;;8.89;77.89;93299.22;5006821;28;20344;-73
2024/03/02 02:29:56;;;;;;;29.58;13.88;;;;;;;8.91;77.87;93296.25;5006331;28;20205;-73
2024/03/02 02:32:21;;;;;;;27.35;13.68;;;;;;;8.92;77.85;93287.97;5006402;28;20033;-73
2024/03/02 02:34:46;;;;;;;28.55;14.02;;;;;;;8.96;77.82;93285.47;5006384;28;20081;-73
2024/03/02 02:37:12;;;;;;;30.75;15.35;;;;;;;8.93;77.76;93289.53;5006182;28;20093;-73
2024/03/02 02:39:37;;;;;;;28.25;14.63;;;;;;;8.96;77.58;93288.91;5005033;28;20097;-74
2024/03/02 02:42:03;;;;;;;28.55;14.82;;;;;;;9.01;77.54;93294.03;5006135;28;20101;-73
2024/03/02 02:44:28;;;;;;;31.17;15.07;;;;;;;9.02;77.37;93303.59;5006312;28;20116;-73
2024/03/02 02:46:53;;;;;;;30.73;14.30;;;;;;;9.03;77.46;93299.03;5006139;28;20026;-74
2024/03/02 02:49:19;;;;;;;28.70;15.55;;;;;;;9.05;77.53;93307.47;5021149;28;20054;-74
2024/03/02 02:51:44;;;;;;;32.42;15.73;;;;;;;9.01;77.36;93304.66;5006031;28;20014;-75
2024/03/02 02:54:10;;;;;;;34.25;14.93;;;;;;;9.00;77.36;93292.50;5005974;28;20213;-75
2024/03/02 02:56:35;;;;;;;31.58;16.48;;;;;;;9.00;77.44;93299.69;5005826;28;20033;-75
2024/03/02 02:59:01;;;;;;;29.30;15.45;;;;;;;8.91;77.65;93285.63;5005793;28;20030;-74
2024/03/02 03:01:26;;;;;;;31.50;15.13;;;;;;;8.97;77.49;93298.44;5006038;28;20273;-74
2024/03/02 03:03:52;;;;;;;33.35;15.80;;;;;;;8.97;77.37;93298.44;5005856;28;20098;-74
2024/03/02 03:06:17;;;;;;;35.15;16.00;;;;;;;9.01;77.17;93296.69;5005762;28;20104;-75
2024/03/02 03:08:42;;;;;;;33.63;16.30;;;;;;;8.98;77.20;93291.25;5005489;28;20026;-75
2024/03/02 03:11:08;;;;;;;32.83;14.60;;;;;;;8.94;77.14;93296.41;5005819;28;20018;-75
2024/03/02 03:13:34;;;;;;;32.75;16.33;;;;;;;8.87;77.53;93300.63;5005731;28;20217;-75
2024/03/02 03:16:00;;;;;;;30.38;15.52;;;;;;;8.79;77.81;93294.25;5005671;28;20037;-75
2024/03/02 03:18:25;;;;;;;28.98;15.40;;;;;;;8.76;77.93;93290.34;5005689;28;20026;-75
2024/03/02 03:20:50;;;;;;;34.33;16.55;;;;;;;8.76;78.20;93293.00;5005241;28;20027;-75
2024/03/02 03:23:16;;;;;;;35.10;17.10;;;;;;;8.68;78.28;93282.38;5005413;28;20101;-75
2024/03/02 03:25:43;;;;;;;34.58;17.27;;;;;;;8.70;78.52;93290.81;5005379;28;20029;-75
2024/03/02 03:28:11;;;;;;;36.35;15.57;;;;;;;8.69;78.53;93295.38;5005438;28;20097;-75
2024/03/02 03:30:37;;;;;;;31.48;15.88;;;;;;;8.69;78.91;93302.53;5004545;28;20042;-75
2024/03/02 03:33:03;;;;;;;32.35;16.02;;;;;;;8.63;78.76;93302.72;5005116;28;20025;-75
2024/03/02 03:35:29;;;;;;;37.13;18.30;;;;;;;8.58;78.96;93294.13;5005345;28;20022;-75
2024/03/02 03:37:54;;;;;;;37.55;17.33;;;;;;;8.55;79.17;93295.53;5005287;28;20023;-73
2024/03/02 03:40:20;;;;;;;36.40;18.98;;;;;;;8.55;79.32;93300.84;5005084;28;20229;-73
2024/03/02 03:42:45;;;;;;;33.95;17.80;;;;;;;8.55;79.47;93306.16;5005081;28;20321;-73
2024/03/02 03:45:10;;;;;;;35.85;18.65;;;;;;;8.58;79.56;93302.09;5004884;28;20034;-73
2024/03/02 03:47:36;;;;;;;32.70;17.60;;;;;;;8.49;79.54;93307.41;5005074;28;20065;-73
2024/03/02 03:50:04;;;;;;;35.92;17.63;;;;;;;8.55;79.42;93300.84;5004809;28;20332;-72
2024/03/02 03:52:29;;;;;;;34.78;17.48;;;;;;;8.63;79.62;93301.94;5004991;28;20030;-73
2024/03/02 03:54:55;;;;;;;37.97;17.75;;;;;;;8.69;79.74;93305.19;5004795;28;20033;-72
2024/03/02 03:57:20;;;;;;;34.20;17.02;;;;;;;8.75;79.41;93303.94;5004671;28;20030;-73
2024/03/02 04:00:14;;;;;;;40.45;20.05;;;;;;;8.60;79.61;93297.25;5004196;28;20186;-72
2024/03/02 04:02:39;;;;;;;41.33;18.98;;;;;;;8.47;80.12;93304.28;5003498;28;20041;-74
2024/03/02 04:05:08;;;;;;;43.30;21.55;;;;;;;8.37;80.46;93304.56;5003378;28;20026;-72
2024/03/02 04:07:39;;;;;;;41.75;21.20;;;;;;;8.24;81.07;93304.41;5004017;28;20179;-72
2024/03/02 04:10:09;;;;;;;45.20;20.75;;;;;;;8.17;81.72;93304.06;5004459;28;20225;-71
2024/03/02 04:12:36;;;;;;;49.10;23.25;;;;;;;8.17;82.02;93295.34;5004583;28;20105;-73
2024/03/02 04:15:03;;;;;;;49.35;23.33;;;;;;;8.11;82.04;93302.66;5004300;28;20022;-73
2024/03/02 04:17:30;;;;;;;41.03;20.55;;;;;;;8.03;82.18;93301.56;5004640;28;20014;-72
2024/03/02 04:19:56;;;;;;;44.58;21.95;;;;;;;7.98;83.01;93298.28;5004370;28;20029;-73
2024/03/02 04:22:21;;;;;;;46.17;23.35;;;;;;;7.97;83.23;93297.47;5004242;28;20022;-73
2024/03/02 04:24:47;;;;;;;49.25;23.10;;;;;;;7.99;83.28;93291.88;5004103;28;20018;-73
2024/03/02 04:27:12;;;;;;;44.90;21.25;;;;;;;8.06;83.48;93294.84;5004184;28;20022;-73
2024/03/02 04:29:37;;;;;;;46.58;21.92;;;;;;;8.14;83.21;93307.38;5004088;28;20052;-73
2024/03/02 04:32:03;;;;;;;40.63;19.83;;;;;;;8.21;82.89;93309.53;5004091;28;20030;-74
2024/03/02 04:34:28;;;;;;;44.92;22.52;;;;;;;8.24;82.92;93307.06;5004263;28;20317;-74
2024/03/02 04:36:53;;;;;;;47.38;20.35;;;;;;;8.30;82.68;93306.88;5004097;28;20134;-73
2024/03/02 04:39:19;;;;;;;41.30;18.75;;;;;;;8.39;82.57;93297.06;5003875;28;20050;-73
2024/03/02 04:41:44;;;;;;;52.75;20.45;;;;;;;8.46;82.29;93302.72;5003854;28;20026;-73
2024/03/02 04:44:10;;;;;;;43.22;19.08;;;;;;;8.51;82.24;93307.88;5003886;28;20022;-74
2024/03/02 04:46:35;;;;;;;40.20;18.45;;;;;;;8.55;82.12;93316.00;5003800;28;20022;-74
2024/03/02 04:49:00;;;;;;;35.80;17.25;;;;;;;8.58;81.87;93307.41;5003663;28;20038;-74
2024/03/02 04:51:26;;;;;;;35.70;17.23;;;;;;;8.61;81.56;93307.56;5003909;28;20029;-74
2024/03/02 04:53:51;;;;;;;37.33;16.85;;;;;;;8.63;81.09;93309.91;5003774;28;20026;-74
2024/03/02 04:56:39;;;;;;;36.45;16.77;;;;;;;8.64;80.79;93303.47;5003805;28;20037;-74
2024/03/02 04:59:04;;;;;;;30.67;16.38;;;;;;;8.66;80.76;93314.59;5003656;28;20028;-73
2024/03/02 05:01:30;;;;;;;35.72;16.83;;;;;;;8.64;80.56;93309.56;5003425;28;20030;-72
2024/03/02 05:03:56;;;;;;;34.97;17.90;;;;;;;8.70;80.42;93310.19;5003841;28;20102;-72
2024/03/02 05:06:22;;;;;;;38.65;17.92;;;;;;;8.75;80.74;93309.25;5003523;28;20033;-73
2024/03/02 05:08:48;;;;;;;29.75;15.90;;;;;;;8.79;81.11;93310.97;5003640;28;20026;-73
2024/03/02 05:13:57;;;;;;;34.38;15.80;;;;;;;8.85;80.84;93311.59;5003732;28;20032;-74
2024/03/02 05:16:22;;;;;;;33.25;15.77;;;;;;;8.84;80.75;93312.69;5003548;28;20252;-74
2024/03/02 05:18:48;;;;;;;33.50;17.50;;;;;;;8.83;80.81;93319.09;5003399;28;20097;-74
2024/03/02 05:21:13;;;;;;;48.55;19.13;;;;;;;8.77;80.85;93321.16;5003323;28;20034;-73
2024/03/02 05:23:38;;;;;;;43.47;17.27;;;;;;;8.74;80.92;93331.63;5003301;28;20030;-73
2024/03/02 05:26:04;;;;;;;50.25;22.40;;;;;;;8.67;81.65;93325.97;5003356;28;20034;-73
2024/03/02 05:28:29;;;;;;;42.72;21.08;;;;;;;8.61;82.15;93336.00;5003439;28;20202;-74
2024/03/02 05:30:54;;;;;;;46.67;21.45;;;;;;;8.57;82.61;93343.81;5003497;28;20022;-75
2024/03/02 05:33:22;;;;;;;40.10;19.58;;;;;;;8.58;82.84;93333.97;5003218;28;20089;-75
2024/03/02 05:35:49;;;;;;;44.97;20.08;;;;;;;8.50;83.04;93343.47;5003212;28;20137;-74
2024/03/02 05:38:15;;;;;;;42.50;19.65;;;;;;;8.46;83.33;93339.88;5003334;28;20034;-74
2024/03/02 05:40:40;;;;;;;43.22;21.67;;;;;;;8.41;83.33;93348.03;5003225;28;20080;-74
2024/03/02 05:43:06;;;;;;;47.03;22.05;;;;;;;8.36;83.66;93348.13;5003246;28;20041;-73
2024/03/02 05:45:31;;;;;;;45.35;22.30;;;;;;;8.31;83.96;93359.69;5003162;28;20101;-74
2024/03/02 05:47:57;;;;;;;51.80;22.88;;;;;;;8.27;84.04;93352.66;5003318;28;20040;-74
2024/03/02 05:50:22;;;;;;;53.42;22.85;;;;;;;8.20;84.45;93348.59;5003165;28;20220;-72
2024/03/02 05:52:47;;;;;;;51.33;23.88;;;;;;;8.20;84.78;93361.06;5004367;28;20386;-73
2024/03/02 05:55:13;;;;;;;50.30;24.40;;;;;;;8.22;85.11;93362.34;5006924;28;20378;-73
2024/03/02 06:00:10;;;;;;;50.38;25.52;;;;;;;8.27;85.14;93360.63;5007006;28;20113;-74
2024/03/02 06:02:39;;;;;;;44.80;23.30;;;;;;;8.30;84.87;93354.69;5007016;28;20323;-73
2024/03/02 06:05:04;;;;;;;55.13;25.73;;;;;;;8.35;85.07;93359.84;5006974;28;20276;-73
2024/03/02 06:07:30;;;;;;;54.15;24.45;;;;;;;8.41;85.09;93358.66;5006689;28;20049;-74
2024/03/02 06:09:55;;;;;;;56.53;25.45;;;;;;;8.47;85.06;93354.75;5006893;28;20341;-73
2024/03/02 06:12:21;;;;;;;51.28;25.48;;;;;;;8.51;84.90;93360.19;5006925;28;20045;-74
2024/03/02 06:14:46;;;;;;;47.85;25.98;;;;;;;8.59;84.92;93359.44;5006664;28;20034;-74
2024/03/02 06:17:11;;;;;;;55.28;27.88;;;;;;;8.61;84.97;93352.72;5006603;28;20037;-74
2024/03/02 06:19:37;;;;;;;54.60;26.63;;;;;;;8.57;85.04;93357.09;5006405;28;20077;-74
2024/03/02 06:22:02;;;;;;;54.28;26.88;;;;;;;8.62;84.89;93351.59;5006438;28;20104;-73
2024/03/02 06:24:27;;;;;;;64.93;29.48;;;;;;;8.64;85.08;93357.38;5006568;28;20030;-73
2024/03/02 06:26:53;;;;;;;59.95;29.58;;;;;;;8.69;85.35;93359.13;5006462;28;20026;-74
2024/03/02 06:29:18;;;;;;;53.30;26.00;;;;;;;8.79;85.15;93356.16;5006128;28;20421;-73
2024/03/02 06:31:44;;;;;;;53.58;24.92;;;;;;;8.84;85.05;93355.22;5006380;28;20028;-74
2024/03/02 06:34:09;;;;;;;47.22;21.27;;;;;;;8.71;84.51;93364.91;5006376;28;20312;-74
2024/03/02 06:36:34;;;;;;;43.05;20.23;;;;;;;8.79;84.17;93371.31;5006473;28;20101;-73
2024/03/02 06:39:00;;;;;;;35.53;19.13;;;;;;;8.86;84.06;93374.28;5006191;28;20093;-73
2024/03/02 06:41:26;;;;;;;41.70;18.20;;;;;;;8.92;83.79;93373.03;5006384;28;20034;-73
2024/03/02 06:43:59;;;;;;;37.47;15.63;;;;;;;8.96;83.27;93368.66;5006243;28;20257;-73
2024/03/02 06:46:25;;;;;;;26.65;14.45;;;;;;;8.97;82.69;93370.19;5005043;28;20305;-73
2024/03/02 06:48:50;;;;;;;32.03;14.75;;;;;;;9.00;82.85;93369.56;5005858;28;20042;-73
2024/03/02 06:51:15;;;;;;;35.33;15.18;;;;;;;9.09;82.34;93372.22;5006057;28;20265;-73
2024/03/02 06:53:41;;;;;;;34.08;14.85;;;;;;;9.15;82.03;93367.53;5005928;28;20062;-73
2024/03/02 06:56:07;;;;;;;32.47;15.30;;;;;;;9.17;82.00;93378.63;5005907;28;20109;-73
2024/03/02 06:58:33;;;;;;;33.83;16.17;;;;;;;9.17;82.00;93390.03;5005750;28;20022;-73
2024/03/02 07:01:00;;;;;;;30.92;16.05;;;;;;;9.23;81.73;93377.38;5005694;28;20033;-74
2024/03/02 07:03:25;;;;;;;38.33;15.90;;;;;;;9.23;81.61;93380.03;5005784;28;20089;-74
2024/03/02 07:05:51;;;;;;;31.55;15.70;;;;;;;9.24;81.50;93378.94;5004810;28;20347;-73
2024/03/02 07:08:16;;;;;;;38.38;16.98;;;;;;;9.29;81.09;93378.75;5005480;28;20033;-77
2024/03/02 07:10:42;;;;;;;35.08;16.50;;;;;;;9.32;81.23;93375.47;5005664;28;20025;-78
2024/03/02 07:13:07;;;;;;;32.17;15.43;;;;;;;9.41;81.31;93378.13;5005670;28;20054;-78
2024/03/02 07:16:34;;;;;;;32.42;15.95;;;;;;;9.45;81.29;93384.38;5005606;28;20029;-78
2024/03/02 07:18:27;;;;;;;31.48;15.70;;;;;;;9.48;81.06;93386.38;5009272;28;20281;-79
2024/03/02 07:20:52;;;;;;;30.70;15.25;;;;;;;9.53;80.29;93386.22;5020542;28;20068;-72
2024/03/02 07:23:19;;;;;;;30.10;14.40;;;;;;;9.57;79.88;93389.81;5005351;28;20050;-73
2024/03/02 07:25:44;;;;;;;34.08;14.65;;;;;;;9.62;79.61;93388.84;5005092;28;20348;-73
2024/03/02 07:28:10;;;;;;;26.65;13.98;;;;;;;9.62;79.71;93389.63;5005171;28;20022;-71
2024/03/02 07:30:38;;;;;;;31.35;15.35;;;;;;;9.67;79.30;93387.88;5005237;28;20026;-72
2024/03/02 07:33:04;;;;;;;33.85;15.13;;;;;;;9.68;79.62;93392.91;5005018;28;20220;-73
2024/03/02 07:35:31;;;;;;;26.73;14.45;;;;;;;9.71;79.33;93386.16;5005013;28;20029;-73
2024/03/02 07:37:57;;;;;;;29.05;14.90;;;;;;;9.71;79.33;93396.78;5005381;28;20339;-75
2024/03/02 07:40:23;;;;;;;33.45;15.18;;;;;;;9.73;78.96;93389.28;5005154;28;20190;-73
2024/03/02 07:42:48;;;;;;;27.55;14.13;;;;;;;9.76;78.65;93399.28;5004965;28;20033;-72
2024/03/02 07:45:13;;;;;;;36.72;14.73;;;;;;;9.74;78.83;93396.16;5004945;28;20460;-72
2024/03/02 07:47:39;;;;;;;33.58;15.93;;;;;;;9.76;78.47;93400.06;5004809;28;20041;-72
2024/03/02 07:50:06;;;;;;;36.55;15.93;;;;;;;9.77;78.66;93406.16;5004867;28;20051;-72
2024/03/02 07:52:32;;;;;;;30.73;15.98;;;;;;;9.79;78.33;93404.75;5004981;28;20225;-72
2024/03/02 07:54:57;;;;;;;36.95;17.05;;;;;;;9.77;78.37;93406.97;5005034;28;20029;-82
2024/03/02 07:57:23;;;;;;;31.60;17.05;;;;;;;9.81;78.33;93407.09;5004706;28;20213;-81
2024/03/02 07:59:49;;;;;;;34.78;17.20;;;;;;;9.83;78.20;93400.38;5004771;28;20030;-81
2024/03/02 08:02:14;;;;;;;43.70;17.35;;;;;;;9.88;78.19;93411.94;5004658;28;20224;-81
2024/03/02 08:04:40;;;;;;;40.72;17.75;;;;;;;9.87;78.31;93410.38;5004745;28;20272;-79
2024/03/02 08:07:06;;;;;;;36.25;18.40;;;;;;;9.88;78.18;93418.03;5004651;28;20097;-79
2024/03/02 08:09:31;;;;;;;37.42;17.55;;;;;;;9.87;78.50;93416.50;5004482;28;20030;-79
2024/03/02 08:11:58;;;;;;;42.17;18.88;;;;;;;9.89;78.48;93421.47;5004872;28;20014;-79
2024/03/02 08:14:23;;;;;;;38.33;18.50;;;;;;;9.89;78.57;93416.16;5004427;28;20018;-78
2024/03/02 08:16:49;;;;;;;41.22;18.80;;;;;;;9.92;78.46;93421.63;5004172;28;20272;-78
2024/03/02 08:19:15;;;;;;;39.38;18.58;;;;;;;9.93;78.51;93414.41;5004319;28;20026;-77
2024/03/02 08:21:40;;;;;;;39.35;18.85;;;;;;;9.93;78.57;93423.19;5004238;28;20321;-77
2024/03/02 08:24:06;;;;;;;35.00;18.38;;;;;;;9.95;78.83;93418.34;5004328;28;20022;-77
2024/03/02 08:26:32;;;;;;;33.83;17.88;;;;;;;9.96;78.69;93419.13;5004236;28;20216;-77
2024/03/02 08:28:58;;;;;;;39.72;17.45;;;;;;;9.96;78.52;93411.13;5004334;28;20026;-77
2024/03/02 08:31:24;;;;;;;41.05;17.88;;;;;;;9.99;78.32;93418.47;5004092;28;20026;-77
2024/03/02 08:33:49;;;;;;;42.53;18.70;;;;;;;9.97;78.64;93410.81;5004020;28;20347;-77
2024/03/02 08:36:15;;;;;;;36.90;17.25;;;;;;;10.01;78.52;93410.94;5003911;28;20030;-77
2024/03/02 08:38:41;;;;;;;41.03;17.95;;;;;;;10.03;78.63;93420.19;5003781;28;20096;-77
2024/03/02 08:41:07;;;;;;;35.45;18.15;;;;;;;10.09;78.71;93409.34;5003908;28;20321;-77
2024/03/02 08:43:32;;;;;;;32.53;16.50;;;;;;;10.13;78.86;93408.38;5004217;28;20114;-78
2024/03/02 08:45:58;;;;;;;43.88;17.85;;;;;;;10.23;78.37;93408.00;5004042;28;20029;-78
2024/03/02 08:48:23;;;;;;;37.22;17.77;;;;;;;10.28;78.34;93403.59;5003816;28;20042;-77
2024/03/02 08:50:49;;;;;;;43.67;18.48;;;;;;;10.34;78.14;93410.34;5003598;28;20284;-77
2024/03/02 08:53:18;;;;;;;40.85;18.13;;;;;;;10.41;77.85;93411.38;5004078;28;20101;-77
2024/03/02 08:55:47;;;;;;;39.22;18.13;;;;;;;10.57;77.05;93408.94;5003832;28;20018;-76
2024/03/02 08:58:12;;;;;;;35.42;18.30;;;;;;;10.67;77.20;93413.13;5003722;28;20030;-78
2024/03/02 09:00:38;;;;;;;37.22;17.60;;;;;;;10.77;77.15;93402.09;5003402;28;20026;-77
2024/03/02 09:03:04;;;;;;;39.53;18.45;;;;;;;10.89;77.01;93416.56;5003539;28;20022;-76
2024/03/02 09:05:29;;;;;;;38.28;18.13;;;;;;;10.98;76.80;93411.97;5003743;28;20037;-76
2024/03/02 09:07:55;;;;;;;35.80;16.95;;;;;;;11.08;74.38;93418.78;5003810;28;20022;-76
2024/03/02 09:10:21;;;;;;;34.50;17.48;;;;;;;11.04;74.37;93414.09;5003192;28;20018;-78
2024/03/02 09:12:46;;;;;;;37.25;17.35;;;;;;;11.12;74.19;93411.69;5003486;28;20042;-78
2024/03/02 09:15:12;;;;;;;33.42;16.83;;;;;;;11.15;74.15;93419.81;5003301;28;20022;-78
2024/03/02 09:17:37;;;;;;;32.47;15.52;;;;;;;11.17;73.77;93419.50;5018820;28;20101;-77
2024/03/02 09:20:04;;;;;;;29.25;15.38;;;;;;;11.22;73.39;93419.31;5003347;28;20018;-78
2024/03/02 09:22:30;;;;;;;31.08;16.42;;;;;;;11.23;73.50;93424.31;5003418;28;20044;-78
2024/03/02 09:24:55;;;;;;;30.42;16.38;;;;;;;11.27;72.97;93427.09;5018725;28;20312;-77
2024/03/02 09:27:22;;;;;;;33.00;16.05;;;;;;;11.28;72.73;93427.88;5002655;28;20018;-77
2024/03/02 09:29:48;;;;;;;31.23;15.00;;;;;;;11.24;72.36;93425.09;5002226;28;20034;-78
2024/03/02 09:32:16;;;;;;;29.92;14.68;;;;;;;11.22;72.14;93432.63;5003242;28;20022;-78
2024/03/02 09:34:43;;;;;;;27.20;14.95;;;;;;;11.20;72.36;93424.19;5003349;28;20061;-78
2024/03/02 09:37:08;;;;;;;27.83;15.73;;;;;;;11.18;72.29;93427.16;5003322;28;20320;-77
2024/03/02 09:39:34;;;;;;;28.10;15.95;;;;;;;11.19;72.34;93438.59;5003244;28;20033;-77
2024/03/02 09:42:00;;;;;;;26.50;14.50;;;;;;;11.12;72.08;93425.03;5003194;28;20313;-77
2024/03/02 09:44:26;;;;;;;27.17;14.70;;;;;;;11.11;71.94;93434.13;5003396;28;20029;-78
2024/03/02 09:46:52;;;;;;;26.08;13.93;;;;;;;10.84;71.79;93425.53;5003224;28;20080;-77
2024/03/02 09:49:17;;;;;;;31.05;14.43;;;;;;;10.88;71.98;93433.69;5002989;28;20046;-77
2024/03/02 09:51:48;;;;;;;27.10;13.98;;;;;;;10.93;72.03;93428.16;5003214;28;20018;-76
2024/03/02 09:54:15;;;;;;;30.15;13.65;;;;;;;10.93;72.35;93439.59;5003203;28;20042;-78
2024/03/02 09:56:47;;;;;;;29.60;14.77;;;;;;;10.97;71.77;93435.19;5003108;28;20026;-77
2024/03/02 09:59:16;;;;;;;23.40;12.83;;;;;;;10.90;71.59;93432.25;5003203;28;20042;-78
2024/03/02 10:01:55;;;;;;;29.08;14.07;;;;;;;10.92;71.42;93438.03;5002965;28;20082;-77
2024/03/02 10:04:21;;;;;;;28.58;13.88;;;;;;;10.88;71.54;93434.47;5002009;28;20079;-77
2024/03/02 10:06:46;;;;;;;31.83;12.77;;;;;;;10.90;71.85;93436.81;5003065;28;20332;-77
2024/03/02 10:09:27;;;;;;;32.13;14.70;;;;;;;10.84;72.19;93436.22;5003035;28;20022;-77
2024/03/02 10:11:52;;;;;;;30.67;16.52;;;;;;;10.68;72.62;93429.91;5003117;28;20030;-76
2024/03/02 10:14:18;;;;;;;36.58;16.73;;;;;;;10.61;73.35;93436.50;5003155;28;20186;-77
2024/03/02 10:16:44;;;;;;;32.50;15.43;;;;;;;10.51;74.24;93428.13;5002994;28;20320;-77
2024/03/02 10:19:23;;;;;;;34.35;15.45;;;;;;;10.48;74.82;93432.19;5002832;28;20220;-77
2024/03/02 10:21:53;;;;;;;32.70;17.40;;;;;;;10.49;75.58;93423.09;5002665;28;20226;-76
2024/03/02 10:24:23;;;;;;;34.58;17.27;;;;;;;10.51;76.02;93425.47;5002892;28;20230;-77
2024/03/02 10:26:49;;;;;;;39.47;19.40;;;;;;;10.49;76.32;93435.66;5002371;28;20033;-76
2024/03/02 10:29:15;;;;;;;38.25;18.95;;;;;;;10.45;76.77;93422.19;5002751;28;20029;-77
2024/03/02 10:31:43;;;;;;;35.70;18.27;;;;;;;10.45;77.35;93427.53;5002690;28;20090;-76
2024/03/02 10:34:10;;;;;;;42.28;19.15;;;;;;;10.43;77.73;93430.50;5002569;28;20026;-76
2024/03/02 10:36:36;;;;;;;40.15;19.05;;;;;;;10.39;77.71;93431.47;5002763;28;20041;-77
2024/03/02 10:39:05;;;;;;;33.85;17.70;;;;;;;10.33;77.67;93422.09;5004133;28;20034;-77
2024/03/02 10:41:35;;;;;;;36.17;17.92;;;;;;;10.29;77.75;93427.25;5006207;28;20030;-76
2024/03/02 10:44:05;;;;;;;38.67;18.58;;;;;;;10.27;78.14;93431.34;5006404;28;20137;-76
2024/03/02 10:46:33;;;;;;;38.42;18.52;;;;;;;10.12;78.67;93428.13;5006528;28;20046;-77
2024/03/02 10:49:03;;;;;;;37.28;19.45;;;;;;;10.06;79.02;93421.41;5006020;28;20057;-77
2024/03/02 10:51:33;;;;;;;38.60;17.90;;;;;;;10.14;79.19;93414.50;5006197;28;20045;-77
2024/03/02 10:54:06;;;;;;;41.28;18.83;;;;;;;10.12;79.42;93414.03;5006202;28;20313;-76
2024/03/02 10:56:40;;;;;;;42.42;19.08;;;;;;;10.13;79.31;93421.69;5005941;28;20026;-77
2024/03/02 10:59:32;;;;;;;44.53;20.00;;;;;;;10.10;80.08;93414.34;5005926;28;20086;-81
2024/03/02 11:01:59;;;;;;;44.80;19.45;;;;;;;10.13;79.88;93412.91;5021380;28;20034;-81
2024/03/02 11:04:26;;;;;;;40.67;17.83;;;;;;;10.13;79.87;93418.25;5006320;28;20097;-81
2024/03/02 11:07:05;;;;;;;32.95;15.52;;;;;;;10.07;79.69;93425.63;5006141;28;20033;-81
2024/03/02 11:09:33;;;;;;;35.35;17.20;;;;;;;9.99;79.52;93413.94;5020879;28;20022;-80
2024/03/02 11:12:05;;;;;;;32.85;16.65;;;;;;;9.92;79.71;93418.19;5004402;28;20225;-81
2024/03/02 11:14:33;;;;;;;36.95;17.25;;;;;;;9.87;80.07;93421.81;5020829;28;20030;-81
2024/03/02 11:17:00;;;;;;;36.50;15.40;;;;;;;9.86;80.22;93408.81;5021031;28;20031;-81
2024/03/02 11:19:27;;;;;;;39.08;18.95;;;;;;;9.89;80.35;93411.63;5005786;28;20085;-77
2024/03/02 11:21:53;;;;;;;39.75;18.85;;;;;;;9.90;80.98;93405.19;5005385;28;20019;-75
2024/03/02 11:24:21;;;;;;;32.92;16.20;;;;;;;10.01;81.04;93411.72;5005461;28;20033;-75
2024/03/02 11:26:47;;;;;;;32.58;17.70;;;;;;;10.08;80.92;93408.56;5005732;28;20073;-74